sensor_id;sensor_type;location;lat;lon;timestamp;pressure;altitude;pressure_sealevel;temperature;humidity
52949;BME280;38812;50.942;3.644;2022-12-18T00:00:53;102632.41;;;-8.40;100.00
52949;BME280;38812;50.942;3.644;2022-12-18T00:03:18;102629.84;;;-8.30;100.00
52949;BME280;38812;50.942;3.644;2022-12-18T00:05:48;102633.69;;;-8.25;100.00
52949;BME280;38812;50.942;3.644;2022-12-18T00:08:13;102634.72;;;-8.33;100.00
52949;BME280;38812;50.942;3.644;2022-12-18T00:10:39;102633.69;;;-8.25;100.00
52949;BME280;38812;50.942;3.644;2022-12-18T00:13:04;102657.38;;;-8.26;100.00
52949;BME280;38812;50.942;3.644;2022-12-18T00:15:30;102614.31;;;-8.33;100.00
52949;BME280;38812;50.942;3.644;2022-12-18T00:17:55;102619.94;;;-8.37;100.00
52949;BME280;38812;50.942;3.644;2022-12-18T00:20:20;102627.84;;;-8.54;100.00
52949;BME280;38812;50.942;3.644;2022-12-18T00:22:53;102603.34;;;-8.42;100.00
52949;BME280;38812;50.942;3.644;2022-12-18T00:25:19;102658.16;;;-8.37;100.00
52949;BME280;38812;50.942;3.644;2022-12-18T00:27:44;102609.59;;;-8.39;100.00
52949;BME280;38812;50.942;3.644;2022-12-18T00:30:10;102622.59;;;-8.36;100.00
52949;BME280;38812;50.942;3.644;2022-12-18T00:32:35;102623.31;;;-8.16;100.00
52949;BME280;38812;50.942;3.644;2022-12-18T00:35:01;102625.78;;;-8.38;100.00
52949;BME280;38812;50.942;3.644;2022-12-18T00:37:26;102627.72;;;-8.46;100.00
52949;BME280;38812;50.942;3.644;2022-12-18T00:39:51;102641.34;;;-8.55;100.00
52949;BME280;38812;50.942;3.644;2022-12-18T00:42:17;102616.84;;;-8.63;100.00
52949;BME280;38812;50.942;3.644;2022-12-18T00:45:01;102621.94;;;-8.63;100.00
52949;BME280;38812;50.942;3.644;2022-12-18T00:47:26;102619.94;;;-8.68;100.00
52949;BME280;38812;50.942;3.644;2022-12-18T00:49:51;102620.44;;;-8.61;100.00
52949;BME280;38812;50.942;3.644;2022-12-18T00:52:17;102614.72;;;-8.69;100.00
52949;BME280;38812;50.942;3.644;2022-12-18T00:54:42;102616.25;;;-8.71;100.00
52949;BME280;38812;50.942;3.644;2022-12-18T00:57:07;102625.94;;;-8.67;100.00
52949;BME280;38812;50.942;3.644;2022-12-18T00:59:33;102616.63;;;-8.46;100.00
52949;BME280;38812;50.942;3.644;2022-12-18T01:01:58;102608.41;;;-8.22;100.00
52949;BME280;38812;50.942;3.644;2022-12-18T01:04:23;102632.34;;;-8.00;100.00
52949;BME280;38812;50.942;3.644;2022-12-18T01:06:49;102624.59;;;-8.01;100.00
52949;BME280;38812;50.942;3.644;2022-12-18T01:09:14;102620.94;;;-8.25;100.00
52949;BME280;38812;50.942;3.644;2022-12-18T01:11:40;102620.53;;;-8.30;100.00
52949;BME280;38812;50.942;3.644;2022-12-18T01:14:05;102631.63;;;-8.09;100.00
52949;BME280;38812;50.942;3.644;2022-12-18T01:16:31;102627.03;;;-8.13;100.00
52949;BME280;38812;50.942;3.644;2022-12-18T01:18:56;102627.84;;;-8.34;100.00
52949;BME280;38812;50.942;3.644;2022-12-18T01:21:23;102627.06;;;-8.43;100.00
52949;BME280;38812;50.942;3.644;2022-12-18T01:23:51;102640.81;;;-8.61;100.00
52949;BME280;38812;50.942;3.644;2022-12-18T01:26:17;102635.22;;;-8.68;100.00
52949;BME280;38812;50.942;3.644;2022-12-18T01:28:42;102625.03;;;-8.68;100.00
52949;BME280;38812;50.942;3.644;2022-12-18T01:31:19;102629.97;;;-8.79;100.00
52949;BME280;38812;50.942;3.644;2022-12-18T01:33:48;102647.41;;;-8.84;100.00
52949;BME280;38812;50.942;3.644;2022-12-18T01:36:24;102649.19;;;-8.93;100.00
52949;BME280;38812;50.942;3.644;2022-12-18T01:38:51;102651.72;;;-8.93;100.00
52949;BME280;38812;50.942;3.644;2022-12-18T01:41:20;102647.41;;;-8.94;100.00
52949;BME280;38812;50.942;3.644;2022-12-18T01:43:55;102643.06;;;-8.95;100.00
52949;BME280;38812;50.942;3.644;2022-12-18T01:46:23;102632.56;;;-9.08;100.00
52949;BME280;38812;50.942;3.644;2022-12-18T01:48:53;102647.25;;;-8.95;100.00
52949;BME280;38812;50.942;3.644;2022-12-18T01:51:20;102650.03;;;-9.03;100.00
52949;BME280;38812;50.942;3.644;2022-12-18T01:53:47;102655.75;;;-9.05;100.00
52949;BME280;38812;50.942;3.644;2022-12-18T01:56:17;102654.72;;;-9.07;100.00
52949;BME280;38812;50.942;3.644;2022-12-18T01:59:16;102655.88;;;-9.04;100.00
52949;BME280;38812;50.942;3.644;2022-12-18T02:01:42;102652.09;;;-8.98;100.00
52949;BME280;38812;50.942;3.644;2022-12-18T02:04:20;102659.09;;;-8.96;100.00
52949;BME280;38812;50.942;3.644;2022-12-18T02:07:04;102651.19;;;-8.99;100.00
52949;BME280;38812;50.942;3.644;2022-12-18T02:09:39;102635.91;;;-9.09;100.00
52949;BME280;38812;50.942;3.644;2022-12-18T02:12:19;102645.22;;;-9.00;100.00
52949;BME280;38812;50.942;3.644;2022-12-18T02:14:55;102629.78;;;-9.01;100.00
52949;BME280;38812;50.942;3.644;2022-12-18T02:17:55;102620.22;;;-9.14;100.00
52949;BME280;38812;50.942;3.644;2022-12-18T02:20:28;102626.72;;;-9.17;100.00
52949;BME280;38812;50.942;3.644;2022-12-18T02:28:11;102597.91;;;-9.26;100.00
52949;BME280;38812;50.942;3.644;2022-12-18T02:30:39;102594.88;;;-9.22;100.00
52949;BME280;38812;50.942;3.644;2022-12-18T02:33:07;102581.78;;;-9.17;100.00
52949;BME280;38812;50.942;3.644;2022-12-18T02:35:34;102592.31;;;-9.22;100.00
52949;BME280;38812;50.942;3.644;2022-12-18T02:38:01;102586.69;;;-9.28;100.00
52949;BME280;38812;50.942;3.644;2022-12-18T02:40:28;102573.47;;;-9.35;100.00
52949;BME280;38812;50.942;3.644;2022-12-18T02:42:55;102567.56;;;-9.44;100.00
52949;BME280;38812;50.942;3.644;2022-12-18T02:45:20;102557.75;;;-9.49;100.00
52949;BME280;38812;50.942;3.644;2022-12-18T02:47:48;102577.84;;;-9.52;100.00
52949;BME280;38812;50.942;3.644;2022-12-18T02:55:55;102595.97;;;-9.39;100.00
52949;BME280;38812;50.942;3.644;2022-12-18T03:01:09;102593.28;;;-9.41;100.00
52949;BME280;38812;50.942;3.644;2022-12-18T03:03:46;102591.69;;;-9.59;100.00
52949;BME280;38812;50.942;3.644;2022-12-18T03:06:26;102593.34;;;-9.59;100.00
52949;BME280;38812;50.942;3.644;2022-12-18T03:09:00;102583.44;;;-9.56;100.00
52949;BME280;38812;50.942;3.644;2022-12-18T03:11:28;102587.84;;;-9.64;100.00
52949;BME280;38812;50.942;3.644;2022-12-18T03:14:16;102582.75;;;-9.64;100.00
52949;BME280;38812;50.942;3.644;2022-12-18T03:16:44;102575.75;;;-9.66;100.00
52949;BME280;38812;50.942;3.644;2022-12-18T03:19:21;102587.03;;;-9.73;100.00
52949;BME280;38812;50.942;3.644;2022-12-18T03:21:50;102590.09;;;-9.77;100.00
52949;BME280;38812;50.942;3.644;2022-12-18T03:24:18;102581.16;;;-9.82;100.00
52949;BME280;38812;50.942;3.644;2022-12-18T03:26:47;102575.53;;;-9.88;100.00
52949;BME280;38812;50.942;3.644;2022-12-18T03:29:17;102584.66;;;-9.90;100.00
52949;BME280;38812;50.942;3.644;2022-12-18T03:31:48;102574.00;;;-9.86;100.00
52949;BME280;38812;50.942;3.644;2022-12-18T03:34:18;102572.09;;;-9.89;100.00
52949;BME280;38812;50.942;3.644;2022-12-18T03:36:45;102588.59;;;-9.75;100.00
52949;BME280;38812;50.942;3.644;2022-12-18T03:39:11;102591.88;;;-9.76;100.00
52949;BME280;38812;50.942;3.644;2022-12-18T03:47:19;102586.72;;;-9.86;100.00
52949;BME280;38812;50.942;3.644;2022-12-18T03:53:05;102603.78;;;-10.04;100.00
52949;BME280;38812;50.942;3.644;2022-12-18T03:55:34;102592.72;;;-10.05;100.00
52949;BME280;38812;50.942;3.644;2022-12-18T03:58:02;102585.59;;;-10.09;100.00
52949;BME280;38812;50.942;3.644;2022-12-18T04:00:30;102596.97;;;-9.95;100.00
52949;BME280;38812;50.942;3.644;2022-12-18T04:02:57;102593.91;;;-9.72;100.00
52949;BME280;38812;50.942;3.644;2022-12-18T04:05:27;102587.38;;;-9.50;100.00
52949;BME280;38812;50.942;3.644;2022-12-18T04:07:54;102574.53;;;-9.51;100.00
52949;BME280;38812;50.942;3.644;2022-12-18T04:10:20;102554.06;;;-9.53;100.00
52949;BME280;38812;50.942;3.644;2022-12-18T04:12:45;102563.72;;;-9.49;100.00
52949;BME280;38812;50.942;3.644;2022-12-18T04:15:11;102548.59;;;-9.57;100.00
52949;BME280;38812;50.942;3.644;2022-12-18T04:17:38;102568.69;;;-9.50;100.00
52949;BME280;38812;50.942;3.644;2022-12-18T04:20:04;102558.38;;;-9.52;100.00
52949;BME280;38812;50.942;3.644;2022-12-18T04:22:30;102569.22;;;-9.54;100.00
52949;BME280;38812;50.942;3.644;2022-12-18T04:24:55;102559.03;;;-9.54;100.00
52949;BME280;38812;50.942;3.644;2022-12-18T04:27:21;102578.84;;;-9.50;100.00
52949;BME280;38812;50.942;3.644;2022-12-18T04:29:46;102571.06;;;-9.62;100.00
52949;BME280;38812;50.942;3.644;2022-12-18T04:32:12;102578.28;;;-9.77;100.00
52949;BME280;38812;50.942;3.644;2022-12-18T04:34:37;102585.50;;;-9.71;100.00
52949;BME280;38812;50.942;3.644;2022-12-18T04:37:03;102580.44;;;-9.71;100.00
52949;BME280;38812;50.942;3.644;2022-12-18T04:39:28;102570.25;;;-9.71;100.00
52949;BME280;38812;50.942;3.644;2022-12-18T04:41:53;102572.09;;;-9.60;100.00
52949;BME280;38812;50.942;3.644;2022-12-18T04:44:19;102566.53;;;-9.46;100.00
52949;BME280;38812;50.942;3.644;2022-12-18T04:46:44;102557.88;;;-9.48;100.00
52949;BME280;38812;50.942;3.644;2022-12-18T04:49:10;102549.75;;;-9.44;100.00
52949;BME280;38812;50.942;3.644;2022-12-18T04:51:38;102564.25;;;-9.43;100.00
52949;BME280;38812;50.942;3.644;2022-12-18T04:54:04;102549.84;;;-9.52;100.00
52949;BME280;38812;50.942;3.644;2022-12-18T04:56:31;102557.59;;;-9.61;100.00
52949;BME280;38812;50.942;3.644;2022-12-18T04:58:56;102564.69;;;-9.67;100.00
52949;BME280;38812;50.942;3.644;2022-12-18T05:01:21;102564.13;;;-9.73;100.00
52949;BME280;38812;50.942;3.644;2022-12-18T05:03:47;102567.50;;;-9.64;100.00
52949;BME280;38812;50.942;3.644;2022-12-18T05:06:12;102565.72;;;-9.65;100.00
52949;BME280;38812;50.942;3.644;2022-12-18T05:08:38;102575.66;;;-9.58;100.00
52949;BME280;38812;50.942;3.644;2022-12-18T05:11:12;102573.13;;;-9.58;100.00
52949;BME280;38812;50.942;3.644;2022-12-18T05:13:38;102568.72;;;-9.40;100.00
52949;BME280;38812;50.942;3.644;2022-12-18T05:16:04;102553.53;;;-9.59;100.00
52949;BME280;38812;50.942;3.644;2022-12-18T05:18:30;102562.06;;;-9.58;100.00
52949;BME280;38812;50.942;3.644;2022-12-18T05:20:55;102557.59;;;-9.61;100.00
52949;BME280;38812;50.942;3.644;2022-12-18T05:23:22;102560.13;;;-9.61;100.00
52949;BME280;38812;50.942;3.644;2022-12-18T05:25:54;102553.88;;;-9.75;100.00
52949;BME280;38812;50.942;3.644;2022-12-18T05:28:20;102561.59;;;-9.73;100.00
52949;BME280;38812;50.942;3.644;2022-12-18T05:30:54;102574.84;;;-9.67;100.00
52949;BME280;38812;50.942;3.644;2022-12-18T05:33:22;102598.03;;;-9.64;100.00
52949;BME280;38812;50.942;3.644;2022-12-18T05:35:51;102585.50;;;-9.71;100.00
52949;BME280;38812;50.942;3.644;2022-12-18T05:38:18;102577.09;;;-9.80;100.00
52949;BME280;38812;50.942;3.644;2022-12-18T05:40:44;102594.28;;;-9.78;100.00
52949;BME280;38812;50.942;3.644;2022-12-18T05:43:10;102588.66;;;-9.84;100.00
52949;BME280;38812;50.942;3.644;2022-12-18T05:45:39;102581.09;;;-9.92;100.00
52949;BME280;38812;50.942;3.644;2022-12-18T05:48:06;102590.72;;;-9.80;100.00
52949;BME280;38812;50.942;3.644;2022-12-18T05:50:34;102579.09;;;-9.86;100.00
52949;BME280;38812;50.942;3.644;2022-12-18T05:53:00;102563.22;;;-9.84;100.00
52949;BME280;38812;50.942;3.644;2022-12-18T05:55:26;102565.44;;;-9.68;100.00
52949;BME280;38812;50.942;3.644;2022-12-18T05:57:51;102557.13;;;-9.47;100.00
52949;BME280;38812;50.942;3.644;2022-12-18T06:00:16;102557.16;;;-9.37;100.00
52949;BME280;38812;50.942;3.644;2022-12-18T06:02:42;102553.25;;;-9.33;100.00
52949;BME280;38812;50.942;3.644;2022-12-18T06:05:07;102547.97;;;-9.45;100.00
52949;BME280;38812;50.942;3.644;2022-12-18T06:07:32;102552.03;;;-9.47;100.00
52949;BME280;38812;50.942;3.644;2022-12-18T06:09:58;102556.50;;;-9.44;100.00
52949;BME280;38812;50.942;3.644;2022-12-18T06:12:23;102541.13;;;-9.36;100.00
52949;BME280;38812;50.942;3.644;2022-12-18T06:14:49;102550.44;;;-9.26;100.00
52949;BME280;38812;50.942;3.644;2022-12-18T06:17:14;102539.53;;;-9.15;100.00
52949;BME280;38812;50.942;3.644;2022-12-18T06:19:39;102531.53;;;-9.09;100.00
52949;BME280;38812;50.942;3.644;2022-12-18T06:22:05;102514.19;;;-9.03;100.00
52949;BME280;38812;50.942;3.644;2022-12-18T06:24:30;102517.78;;;-8.91;100.00
52949;BME280;38812;50.942;3.644;2022-12-18T06:26:55;102519.69;;;-8.78;100.00
52949;BME280;38812;50.942;3.644;2022-12-18T06:29:21;102520.19;;;-8.82;100.00
52949;BME280;38812;50.942;3.644;2022-12-18T06:31:46;102522.59;;;-8.84;100.00
52949;BME280;38812;50.942;3.644;2022-12-18T06:34:12;102513.44;;;-9.12;100.00
52949;BME280;38812;50.942;3.644;2022-12-18T06:36:37;102522.34;;;-9.17;100.00
52949;BME280;38812;50.942;3.644;2022-12-18T06:39:02;102517.75;;;-9.31;100.00
52949;BME280;38812;50.942;3.644;2022-12-18T06:41:28;102513.16;;;-9.36;100.00
52949;BME280;38812;50.942;3.644;2022-12-18T06:43:53;102499.22;;;-9.49;100.00
52949;BME280;38812;50.942;3.644;2022-12-18T06:46:19;102495.78;;;-9.50;100.00
52949;BME280;38812;50.942;3.644;2022-12-18T06:48:47;102496.31;;;-9.44;100.00
52949;BME280;38812;50.942;3.644;2022-12-18T06:51:19;102487.53;;;-9.47;100.00
52949;BME280;38812;50.942;3.644;2022-12-18T06:53:45;102491.75;;;-9.38;100.00
52949;BME280;38812;50.942;3.644;2022-12-18T06:56:10;102470.25;;;-9.41;100.00
52949;BME280;38812;50.942;3.644;2022-12-18T06:58:36;102483.50;;;-9.35;100.00
52949;BME280;38812;50.942;3.644;2022-12-18T07:01:03;102483.38;;;-9.26;100.00
52949;BME280;38812;50.942;3.644;2022-12-18T07:03:29;102476.75;;;-9.35;100.00
52949;BME280;38812;50.942;3.644;2022-12-18T07:05:54;102464.50;;;-9.49;100.00
52949;BME280;38812;50.942;3.644;2022-12-18T07:08:21;102462.59;;;-9.51;100.00
52949;BME280;38812;50.942;3.644;2022-12-18T07:10:46;102453.06;;;-9.54;100.00
52949;BME280;38812;50.942;3.644;2022-12-18T07:13:11;102448.00;;;-9.33;100.00
52949;BME280;38812;50.942;3.644;2022-12-18T07:15:37;102448.50;;;-9.27;100.00
52949;BME280;38812;50.942;3.644;2022-12-18T07:18:02;102435.50;;;-9.30;100.00
52949;BME280;38812;50.942;3.644;2022-12-18T07:20:28;102432.72;;;-9.44;100.00
52949;BME280;38812;50.942;3.644;2022-12-18T07:22:54;102423.56;;;-9.42;100.00
52949;BME280;38812;50.942;3.644;2022-12-18T07:25:19;102424.56;;;-9.40;100.00
52949;BME280;38812;50.942;3.644;2022-12-18T07:27:44;102423.41;;;-9.43;100.00
52949;BME280;38812;50.942;3.644;2022-12-18T07:30:10;102417.69;;;-9.51;100.00
52949;BME280;38812;50.942;3.644;2022-12-18T07:32:36;102421.50;;;-9.46;100.00
52949;BME280;38812;50.942;3.644;2022-12-18T07:35:01;102424.31;;;-9.53;100.00
52949;BME280;38812;50.942;3.644;2022-12-18T07:37:26;102414.66;;;-9.57;100.00
52949;BME280;38812;50.942;3.644;2022-12-18T07:39:52;102412.34;;;-9.54;100.00
52949;BME280;38812;50.942;3.644;2022-12-18T07:42:17;102407.75;;;-9.68;100.00
52949;BME280;38812;50.942;3.644;2022-12-18T07:44:59;102424.25;;;-9.73;100.00
52949;BME280;38812;50.942;3.644;2022-12-18T07:47:25;102410.19;;;-9.49;100.00
52949;BME280;38812;50.942;3.644;2022-12-18T07:49:51;102413.88;;;-9.56;100.00
52949;BME280;38812;50.942;3.644;2022-12-18T07:52:16;102414.38;;;-9.50;100.00
52949;BME280;38812;50.942;3.644;2022-12-18T07:54:42;102432.72;;;-9.54;100.00
52949;BME280;38812;50.942;3.644;2022-12-18T07:57:07;102441.09;;;-9.55;100.00
52949;BME280;38812;50.942;3.644;2022-12-18T07:59:33;102425.19;;;-9.52;100.00
52949;BME280;38812;50.942;3.644;2022-12-18T08:01:59;102428.63;;;-9.42;100.00
52949;BME280;38812;50.942;3.644;2022-12-18T08:04:25;102424.06;;;-9.25;100.00
52949;BME280;38812;50.942;3.644;2022-12-18T08:06:50;102421.25;;;-9.28;100.00
52949;BME280;38812;50.942;3.644;2022-12-18T08:09:16;102425.84;;;-9.14;100.00
52949;BME280;38812;50.942;3.644;2022-12-18T08:11:42;102428.75;;;-8.79;100.00
52949;BME280;38812;50.942;3.644;2022-12-18T08:14:07;102419.19;;;-8.72;100.00
52949;BME280;38812;50.942;3.644;2022-12-18T08:16:33;102421.16;;;-8.47;100.00
52949;BME280;38812;50.942;3.644;2022-12-18T08:18:58;102426.41;;;-8.24;100.00
52949;BME280;38812;50.942;3.644;2022-12-18T08:21:26;102414.56;;;-8.02;100.00
52949;BME280;38812;50.942;3.644;2022-12-18T08:23:55;102427.19;;;-7.38;100.00
52949;BME280;38812;50.942;3.644;2022-12-18T08:26:21;102409.16;;;-7.06;100.00
52949;BME280;38812;50.942;3.644;2022-12-18T08:28:47;102394.91;;;-7.14;100.00
52949;BME280;38812;50.942;3.644;2022-12-18T08:31:12;102402.16;;;-7.08;100.00
52949;BME280;38812;50.942;3.644;2022-12-18T08:33:39;102401.06;;;-6.88;100.00
52949;BME280;38812;50.942;3.644;2022-12-18T08:36:05;102411.19;;;-6.78;100.00
52949;BME280;38812;50.942;3.644;2022-12-18T08:38:32;102400.09;;;-6.79;100.00
52949;BME280;38812;50.942;3.644;2022-12-18T08:40:59;102408.22;;;-6.73;100.00
52949;BME280;38812;50.942;3.644;2022-12-18T08:43:25;102387.88;;;-6.60;100.00
52949;BME280;38812;50.942;3.644;2022-12-18T08:46:08;102389.72;;;-6.45;100.00
52949;BME280;38812;50.942;3.644;2022-12-18T08:48:34;102378.47;;;-6.24;100.00
52949;BME280;38812;50.942;3.644;2022-12-18T08:50:59;102370.91;;;-6.11;100.00
52949;BME280;38812;50.942;3.644;2022-12-18T08:53:25;102376.72;;;-5.89;100.00
52949;BME280;38812;50.942;3.644;2022-12-18T08:55:51;102347.38;;;-5.80;100.00
52949;BME280;38812;50.942;3.644;2022-12-18T08:58:17;102363.41;;;-5.58;100.00
52949;BME280;38812;50.942;3.644;2022-12-18T09:00:43;102404.94;;;-5.12;100.00
52949;BME280;38812;50.942;3.644;2022-12-18T09:03:16;102365.34;;;-4.91;100.00
52949;BME280;38812;50.942;3.644;2022-12-18T09:05:42;102359.63;;;-4.74;100.00
52949;BME280;38812;50.942;3.644;2022-12-18T09:08:07;102358.06;;;-4.59;100.00
52949;BME280;38812;50.942;3.644;2022-12-18T09:10:33;102362.63;;;-4.55;100.00
52949;BME280;38812;50.942;3.644;2022-12-18T09:12:58;102373.53;;;-4.44;100.00
52949;BME280;38812;50.942;3.644;2022-12-18T09:15:23;102360.78;;;-4.29;100.00
52949;BME280;38812;50.942;3.644;2022-12-18T09:17:49;102372.81;;;-4.28;100.00
52949;BME280;38812;50.942;3.644;2022-12-18T09:20:16;102369.06;;;-4.20;100.00
52949;BME280;38812;50.942;3.644;2022-12-18T09:22:41;102366.22;;;-4.11;100.00
52949;BME280;38812;50.942;3.644;2022-12-18T09:25:07;102361.78;;;-4.14;100.00
52949;BME280;38812;50.942;3.644;2022-12-18T09:27:35;102382.06;;;-4.04;100.00
52949;BME280;38812;50.942;3.644;2022-12-18T09:30:01;102382.16;;;-4.02;100.00
52949;BME280;38812;50.942;3.644;2022-12-18T09:32:26;102369.81;;;-3.95;100.00
52949;BME280;38812;50.942;3.644;2022-12-18T09:34:51;102378.06;;;-3.86;100.00
52949;BME280;38812;50.942;3.644;2022-12-18T09:37:17;102387.31;;;-3.74;100.00
52949;BME280;38812;50.942;3.644;2022-12-18T09:39:42;102370.84;;;-3.78;100.00
52949;BME280;38812;50.942;3.644;2022-12-18T09:42:19;102370.06;;;-3.62;100.00
52949;BME280;38812;50.942;3.644;2022-12-18T09:44:50;102357.69;;;-3.69;100.00
52949;BME280;38812;50.942;3.644;2022-12-18T09:47:28;102352.78;;;-3.65;100.00
52949;BME280;38812;50.942;3.644;2022-12-18T09:50:01;102349.28;;;-3.52;100.00
52949;BME280;38812;50.942;3.644;2022-12-18T09:52:33;102343.56;;;-3.48;100.00
52949;BME280;38812;50.942;3.644;2022-12-18T09:55:55;102335.19;;;-3.44;100.00
52949;BME280;38812;50.942;3.644;2022-12-18T09:58:24;102343.88;;;-3.42;100.00
52949;BME280;38812;50.942;3.644;2022-12-18T10:00:55;102337.16;;;-3.40;100.00
52949;BME280;38812;50.942;3.644;2022-12-18T10:03:21;102331.50;;;-3.34;100.00
52949;BME280;38812;50.942;3.644;2022-12-18T10:06:04;102344.16;;;-3.23;100.00
52949;BME280;38812;50.942;3.644;2022-12-18T10:11:21;102333.28;;;-3.19;100.00
52949;BME280;38812;50.942;3.644;2022-12-18T10:13:58;102326.72;;;-3.14;100.00
52949;BME280;38812;50.942;3.644;2022-12-18T10:22:19;102328.22;;;-3.02;100.00
52949;BME280;38812;50.942;3.644;2022-12-18T10:27:31;102333.09;;;-2.92;100.00
52949;BME280;38812;50.942;3.644;2022-12-18T10:29:57;102329.09;;;-3.02;100.00
52949;BME280;38812;50.942;3.644;2022-12-18T10:32:28;102330.09;;;-2.85;100.00
52949;BME280;38812;50.942;3.644;2022-12-18T10:34:56;102318.19;;;-2.83;100.00
52949;BME280;38812;50.942;3.644;2022-12-18T10:37:25;102328.72;;;-2.79;100.00
52949;BME280;38812;50.942;3.644;2022-12-18T10:42:32;102333.78;;;-2.80;100.00
52949;BME280;38812;50.942;3.644;2022-12-18T10:45:17;102343.44;;;-2.76;100.00
52949;BME280;38812;50.942;3.644;2022-12-18T10:47:48;102327.03;;;-2.78;100.00
52949;BME280;38812;50.942;3.644;2022-12-18T10:50:29;102334.03;;;-2.61;100.00
52949;BME280;38812;50.942;3.644;2022-12-18T10:53:00;102321.31;;;-2.58;100.00
52949;BME280;38812;50.942;3.644;2022-12-18T10:55:31;102325.03;;;-2.53;100.00
52949;BME280;38812;50.942;3.644;2022-12-18T10:58:32;102335.34;;;-2.53;100.00
52949;BME280;38812;50.942;3.644;2022-12-18T11:01:11;102316.91;;;-2.60;100.00
52949;BME280;38812;50.942;3.644;2022-12-18T11:03:45;102315.28;;;-2.58;100.00
52949;BME280;38812;50.942;3.644;2022-12-18T11:06:13;102306.56;;;-2.46;100.00
52949;BME280;38812;50.942;3.644;2022-12-18T11:08:41;102290.50;;;-2.42;100.00
52949;BME280;38812;50.942;3.644;2022-12-18T11:11:15;102297.91;;;-2.15;100.00
52949;BME280;38812;50.942;3.644;2022-12-18T11:14:03;102287.84;;;-2.27;100.00
52949;BME280;38812;50.942;3.644;2022-12-18T11:16:53;102284.22;;;-2.14;100.00
52949;BME280;38812;50.942;3.644;2022-12-18T11:21:50;102294.41;;;-2.17;100.00
52949;BME280;38812;50.942;3.644;2022-12-18T11:26:55;102285.91;;;-2.15;100.00
52949;BME280;38812;50.942;3.644;2022-12-18T11:29:32;102286.16;;;-2.10;100.00
52949;BME280;38812;50.942;3.644;2022-12-18T11:37:29;102282.66;;;-1.96;100.00
52949;BME280;38812;50.942;3.644;2022-12-18T11:40:14;102261.00;;;-1.99;100.00
52949;BME280;38812;50.942;3.644;2022-12-18T11:42:48;102260.41;;;-1.94;100.00
52949;BME280;38812;50.942;3.644;2022-12-18T11:45:27;102262.84;;;-1.97;100.00
52949;BME280;38812;50.942;3.644;2022-12-18T11:48:22;102266.47;;;-1.77;100.00
52949;BME280;38812;50.942;3.644;2022-12-18T11:50:51;102256.72;;;-1.83;100.00
52949;BME280;38812;50.942;3.644;2022-12-18T11:53:18;102265.13;;;-1.69;100.00
52949;BME280;38812;50.942;3.644;2022-12-18T12:01:32;102255.16;;;-1.63;100.00
52949;BME280;38812;50.942;3.644;2022-12-18T12:04:02;102260.53;;;-1.58;100.00
52949;BME280;38812;50.942;3.644;2022-12-18T12:09:23;102251.97;;;-1.41;100.00
52949;BME280;38812;50.942;3.644;2022-12-18T12:12:39;102244.72;;;-1.48;100.00
52949;BME280;38812;50.942;3.644;2022-12-18T12:25:46;102198.88;;;-1.20;100.00
52949;BME280;38812;50.942;3.644;2022-12-18T12:39:24;102222.53;;;-1.11;100.00
52949;BME280;38812;50.942;3.644;2022-12-18T12:41:52;102233.81;;;-1.09;100.00
52949;BME280;38812;50.942;3.644;2022-12-18T12:44:40;102221.34;;;-1.17;100.00
52949;BME280;38812;50.942;3.644;2022-12-18T12:47:16;102232.97;;;-1.08;100.00
52949;BME280;38812;50.942;3.644;2022-12-18T12:49:43;102222.16;;;-1.18;100.00
52949;BME280;38812;50.942;3.644;2022-12-18T12:52:15;102223.84;;;-1.19;100.00
52949;BME280;38812;50.942;3.644;2022-12-18T12:54:43;102217.38;;;-1.11;100.00
52949;BME280;38812;50.942;3.644;2022-12-18T12:57:16;102213.03;;;-1.12;100.00
52949;BME280;38812;50.942;3.644;2022-12-18T12:59:59;102217.06;;;-1.17;100.00
52949;BME280;38812;50.942;3.644;2022-12-18T13:02:39;102206.03;;;-1.14;100.00
52949;BME280;38812;50.942;3.644;2022-12-18T13:08:27;102210.22;;;-1.16;100.00
52949;BME280;38812;50.942;3.644;2022-12-18T13:10:55;102203.50;;;-1.13;100.00
52949;BME280;38812;50.942;3.644;2022-12-18T13:13:50;102207.72;;;-1.15;100.00
52949;BME280;38812;50.942;3.644;2022-12-18T13:16:21;102212.88;;;-1.15;100.00
52949;BME280;38812;50.942;3.644;2022-12-18T13:19:18;102204.41;;;-1.12;100.00
52949;BME280;38812;50.942;3.644;2022-12-18T13:21:53;102200.13;;;-1.12;100.00
52949;BME280;38812;50.942;3.644;2022-12-18T13:24:27;102195.69;;;-1.14;100.00
52949;BME280;38812;50.942;3.644;2022-12-18T13:26:55;102185.22;;;-1.17;100.00
52949;BME280;38812;50.942;3.644;2022-12-18T13:29:56;102182.50;;;-1.02;100.00
52949;BME280;38812;50.942;3.644;2022-12-18T13:32:23;102162.41;;;-1.10;100.00
52949;BME280;38812;50.942;3.644;2022-12-18T13:37:53;102171.06;;;-1.08;100.00
52949;BME280;38812;50.942;3.644;2022-12-18T13:48:22;102153.84;;;-1.09;100.00
52949;BME280;38812;50.942;3.644;2022-12-18T13:50:51;102148.16;;;-1.01;100.00
52949;BME280;38812;50.942;3.644;2022-12-18T13:53:27;102136.06;;;-1.02;100.00
52949;BME280;38812;50.942;3.644;2022-12-18T13:55:54;102130.41;;;-1.13;100.00
52949;BME280;38812;50.942;3.644;2022-12-18T13:58:19;102124.38;;;-1.14;100.00
52949;BME280;38812;50.942;3.644;2022-12-18T14:00:45;102119.72;;;-0.84;100.00
52949;BME280;38812;50.942;3.644;2022-12-18T14:03:25;102113.81;;;-1.00;100.00
52949;BME280;38812;50.942;3.644;2022-12-18T14:05:56;102103.91;;;-1.11;100.00
52949;BME280;38812;50.942;3.644;2022-12-18T14:08:25;102101.97;;;-1.15;100.00
52949;BME280;38812;50.942;3.644;2022-12-18T14:10:52;102090.19;;;-1.10;100.00
52949;BME280;38812;50.942;3.644;2022-12-18T14:13:23;102099.44;;;-0.95;100.00
52949;BME280;38812;50.942;3.644;2022-12-18T14:15:50;102091.34;;;-1.03;100.00
52949;BME280;38812;50.942;3.644;2022-12-18T14:18:25;102090.38;;;-1.05;100.00
52949;BME280;38812;50.942;3.644;2022-12-18T14:20:57;102088.28;;;-1.14;100.00
52949;BME280;38812;50.942;3.644;2022-12-18T14:23:40;102070.56;;;-1.06;100.00